createdAt,value
2022-08-11T00:23:22.528Z,46.9
2022-08-11T00:29:51.573Z,48.2
2022-08-11T00:42:57.218Z,51
2022-08-11T00:49:31.587Z,51.7
2022-08-11T01:09:07.268Z,52.3
2022-08-11T01:22:15.642Z,53.1
2022-08-11T01:28:57.588Z,53.6
2022-08-11T01:56:12.448Z,54.1
2022-08-11T02:02:54.320Z,56.2
2022-08-11T02:22:41.466Z,55.6
2022-08-11T02:29:23.956Z,55.5
2022-08-11T03:36:23.809Z,60.1
2022-08-11T03:50:20.446Z,61.3
2022-08-11T04:21:50.202Z,62.5
2022-08-11T05:29:22.521Z,57.6
2022-08-11T05:36:03.851Z,51.9
2022-08-11T05:42:37.666Z,53.1
2022-08-11T05:49:26.269Z,50
2022-08-11T06:02:54.118Z,42.4
2022-08-11T06:09:32.183Z,38.3
2022-08-11T06:15:41.736Z,40.2
2022-08-11T06:21:56.271Z,49.3
2022-08-11T06:28:10.835Z,49.8
2022-08-11T06:34:46.014Z,49.1
2022-08-11T06:41:02.461Z,49.3
2022-08-11T06:46:57.661Z,49.4
2022-08-11T06:52:54.641Z,48.9
2022-08-11T06:58:58.206Z,48.6
2022-08-11T07:18:19.979Z,49.6
2022-08-11T07:24:58.863Z,49.7
2022-08-11T07:38:06.872Z,46.4
2022-08-11T07:44:34.934Z,45.2
2022-08-11T07:50:34.548Z,45.4
2022-08-11T07:56:54.647Z,43.7
2022-08-11T08:04:01.458Z,44.5
2022-08-11T08:09:52.826Z,43.8
2022-08-11T08:15:52.256Z,43.2
2022-08-11T08:22:37.308Z,41.5
2022-08-11T08:29:02.205Z,42
2022-08-11T08:35:14.741Z,41.8
2022-08-11T08:41:25.462Z,41.4
2022-08-11T08:47:46.990Z,42
2022-08-11T09:00:45.625Z,39.7
2022-08-11T09:06:55.047Z,40.2
2022-08-11T09:20:01.820Z,36.9
2022-08-11T09:25:57.847Z,36.9
2022-08-11T09:32:02.984Z,36.7
2022-08-11T09:44:52.353Z,35.8
2022-08-11T09:50:52.524Z,35.1
2022-08-11T09:56:48.810Z,34.7
2022-08-11T10:02:42.427Z,34
2022-08-11T10:08:36.526Z,32.9
2022-08-11T10:14:41.268Z,32.6
2022-08-11T10:20:39.400Z,32.6
2022-08-11T10:26:45.884Z,32
2022-08-11T10:33:00.173Z,34
2022-08-11T10:39:21.123Z,33.6
2022-08-11T10:45:18.292Z,32.4
2022-08-11T10:51:12.479Z,32.4
2022-08-11T10:58:10.231Z,32.7
2022-08-11T11:04:37.129Z,33.1
2022-08-11T11:10:41.862Z,33.2
2022-08-11T11:16:56.981Z,33.2
2022-08-11T11:22:53.850Z,31.6
2022-08-11T11:35:19.613Z,31.2
2022-08-11T11:41:37.585Z,31.5
2022-08-11T11:47:31.660Z,31.5
2022-08-11T11:53:23.538Z,30.4
2022-08-11T11:59:16.336Z,31.2
2022-08-11T12:06:19.820Z,30
2022-08-11T12:12:27.438Z,30.4
2022-08-11T12:18:22.126Z,30.1
2022-08-11T12:24:31.566Z,31.2
2022-08-11T12:30:24.925Z,31.2
2022-08-11T12:36:17.406Z,29.9
2022-08-11T12:42:11.809Z,31.7
2022-08-11T12:49:03.934Z,31.4
2022-08-11T12:55:03.836Z,29.3
2022-08-11T13:01:21.855Z,28.6
2022-08-11T13:07:18.039Z,28.5
2022-08-11T13:13:58.091Z,28.5
2022-08-11T13:19:53.902Z,30.9
2022-08-11T13:25:44.143Z,28.5
2022-08-11T13:31:35.641Z,28.6
2022-08-11T13:38:20.393Z,30.5
2022-08-11T13:44:15.499Z,28.7
2022-08-11T13:50:19.500Z,29.2
2022-08-11T13:56:17.573Z,29.9
2022-08-11T14:02:38.752Z,27.5
2022-08-11T14:08:47.358Z,27.9
2022-08-11T14:28:41.939Z,26.9
2022-08-11T14:34:46.803Z,26.5
2022-08-11T14:40:50.128Z,26.5
2022-08-11T14:46:44.613Z,26.5
2022-08-11T14:52:39.752Z,27.1
2022-08-11T15:05:34.264Z,26.2
2022-08-11T15:12:02.438Z,27.1
2022-08-11T15:18:40.393Z,27
2022-08-11T15:25:46.318Z,26.5
2022-08-11T15:38:21.683Z,26.1
2022-08-11T15:45:01.374Z,26.4
2022-08-11T15:51:10.966Z,26.7
2022-08-11T15:57:18.226Z,26.4
2022-08-11T16:10:06.665Z,26.9
2022-08-11T16:30:01.019Z,26.2
2022-08-11T16:43:16.325Z,26.3
2022-08-11T16:49:38.808Z,26.6
2022-08-11T16:56:27.425Z,26.5
2022-08-11T17:02:45.992Z,26.4
2022-08-11T17:15:24.260Z,26.8
2022-08-11T17:21:20.782Z,26.3
2022-08-11T17:27:27.245Z,26.6
2022-08-11T17:39:38.491Z,26.8
2022-08-11T17:45:30.440Z,27.2
2022-08-11T17:51:24.016Z,27.4
2022-08-11T17:57:23.146Z,27.7
2022-08-11T18:03:14.379Z,27.7
2022-08-11T18:09:08.730Z,28.2
2022-08-11T18:15:10.498Z,28.2
2022-08-11T18:21:02.872Z,29.2
2022-08-11T18:26:58.984Z,29.1
2022-08-11T18:33:17.131Z,29.1
2022-08-11T18:39:59.814Z,29.5
2022-08-11T18:46:17.883Z,30.9
2022-08-11T18:52:37.546Z,32.2
2022-08-11T18:59:18.663Z,34.3
2022-08-11T19:34:10.087Z,37.9
2022-08-11T19:47:27.132Z,38.9
2022-08-11T20:07:24.929Z,40.8
2022-08-11T20:13:23.660Z,41.5
2022-08-11T20:25:53.109Z,42.2
2022-08-11T20:32:21.511Z,43.3
2022-08-11T20:38:16.486Z,43
2022-08-11T20:44:10.976Z,44.5
2022-08-11T20:50:06.231Z,44.9
2022-08-11T20:56:18.663Z,45
2022-08-11T21:02:24.306Z,45.8
2022-08-11T21:08:27.539Z,46.1
2022-08-11T21:14:21.738Z,46.3
2022-08-11T21:20:28.345Z,45.9
2022-08-11T21:26:39.298Z,46.4
2022-08-11T21:39:59.798Z,45.6
2022-08-11T21:46:17.220Z,45.6
2022-08-11T21:59:31.994Z,47.3
2022-08-11T22:06:04.142Z,46.9
2022-08-11T22:12:44.867Z,47.6
2022-08-11T22:32:23.525Z,46.6
2022-08-11T22:38:18.928Z,45
2022-08-11T22:44:12.146Z,45.2
2022-08-11T22:50:10.083Z,40.7
2022-08-11T23:01:59.630Z,44.1
2022-08-11T23:07:56.187Z,44.9
2022-08-11T23:13:49.257Z,44.7
2022-08-11T23:20:26.730Z,45
2022-08-11T23:26:58.792Z,46.4
2022-08-11T23:39:34.617Z,47.9
2022-08-11T23:45:25.872Z,48.7
2022-08-11T23:51:16.946Z,49.9
2022-08-11T23:57:08.017Z,50.7
